Terminal Aerodrome Forecast
Issued by NWS Austin/San Antonio, TX

Current Version | Previous Version | Text Only | Print | Product List | Glossary Off
Versions: 1 2 3 4 5 6 7 8 9 10 11 12 13 14 15 16 17

000
FTUS44 KEWX 201100
TAFAUS
TAF
KAUS 201123Z 2012/2118 VRB02KT P6SM FEW020 SCT040
      TEMPO 2012/2015 3SM BR
     FM201600 06005KT P6SM SCT050 BKN200=

USA.gov is the U.S. government's official web portal to all federal, state and local government web resources and services.